This is the latest recevied weather packets stored in our database for station/object DH5DY-6. If no packets are shown the sender has not sent any weather packets the latest 10 day(s).
| Time | Temp. | Humidity | Pressure | Rain* | Wind** | Luminosity | Snow |
|---|---|---|---|---|---|---|---|
| 1787914348 | 18.89° C | 91% | 1007.5 hPa | 9.4 mm | - | 283 W/m² | - |
| 1787913747 | 18.89° C | 91% | 1007.3 hPa | 9.4 mm | - | 155 W/m² | - |
| 1787912547 | 20° C | 88% | 1007.5 hPa | 3.3 mm | - | 32 W/m² | - |
| 1787911947 | 20.56° C | 87% | 1007 hPa | 0 mm | - | 93 W/m² | - |
| 1787910748 | 21.11° C | 87% | 1006.7 hPa | 0 mm | - | 39 W/m² | - |
| 1787910147 | 20.56° C | 88% | 1006.7 hPa | 0 mm | - | 128 W/m² | - |
| 1787908947 | 20.56° C | 88% | 1006.8 hPa | 0 mm | - | 134 W/m² | - |
| 1787908347 | 20.56° C | 89% | 1006.5 hPa | 0 mm | - | 239 W/m² | - |
| 1787907148 | 20° C | 92% | 1006.2 hPa | 0 mm | - | 214 W/m² | - |
| 1787905348 | 19.44° C | 94% | 1006.9 hPa | 0 mm | - | 190 W/m² | - |
| 1787904747 | 19.44° C | 94% | 1007 hPa | 0 mm | - | 151 W/m² | - |
| 1787903547 | 18.89° C | 95% | 1007.1 hPa | 0 mm | - | 125 W/m² | - |
| 1787902946 | 18.89° C | 95% | 1007.1 hPa | 0 mm | - | 98 W/m² | - |
| 1787902351 | 18.89° C | 95% | 1006.7 hPa | 0 mm | - | 165 W/m² | - |
| 1787901746 | 18.33° C | 95% | 1006.6 hPa | 0 mm | - | 81 W/m² | - |
| 1787901147 | 18.33° C | 95% | 1006.7 hPa | 0 mm | - | 65 W/m² | - |
| 1787899346 | 18.33° C | 94% | 1006.6 hPa | 0 mm | - | 60 W/m² | - |
| 1787898146 | 18.33° C | 95% | 1006.7 hPa | 0 mm | - | 54 W/m² | - |
| 1787896950 | 17.78° C | 95% | 1006.9 hPa | 0 mm | - | 49 W/m² | - |
| 1787896346 | 17.78° C | 95% | 1007.2 hPa | 0 mm | - | 35 W/m² | - |
| 1787895747 | 17.78° C | 94% | 1007.2 hPa | 0 mm | - | 56 W/m² | - |
| 1787894547 | 17.22° C | 94% | 1006 hPa | 0 mm | - | 19 W/m² | - |
| 1787893945 | 17.22° C | 94% | 1005.8 hPa | 0 mm | - | 12 W/m² | - |
| 1787892745 | 17.22° C | 94% | 1006 hPa | 0 mm | - | 5 W/m² | - |
| 1787892146 | 17.22° C | 94% | 1005.7 hPa | 0 mm | - | 0 W/m² | - |
* Rain latest hour (hover to see other rain measurements)
** Current wind speed in m/s (hover to see current wind gust speed)